createdAt,value
2022-11-18T00:00:06.721Z,8.70
2022-11-18T00:02:35.029Z,8.86
2022-11-18T00:05:03.437Z,8.67
2022-11-18T00:07:31.790Z,9.03
2022-11-18T00:10:00.186Z,9.00
2022-11-18T00:12:42.379Z,9.20
2022-11-18T00:15:12.094Z,8.89
2022-11-18T00:17:40.416Z,9.03
2022-11-18T00:20:09.321Z,9.20
2022-11-18T00:22:39.609Z,8.81
2022-11-18T00:25:08.593Z,9.22
2022-11-18T00:27:36.836Z,8.71
2022-11-18T00:30:05.787Z,8.71
2022-11-18T00:32:35.440Z,8.71
2022-11-18T00:35:03.721Z,8.89
2022-11-18T00:37:32.082Z,9.20
2022-11-18T00:40:00.395Z,9.04
2022-11-18T00:42:46.213Z,9.00
2022-11-18T00:45:14.623Z,9.27
2022-11-18T00:47:46.595Z,9.04
2022-11-18T00:50:15.044Z,9.09
2022-11-18T00:52:43.282Z,9.01
2022-11-18T00:55:11.600Z,9.05
2022-11-18T00:57:39.832Z,9.11
2022-11-18T01:00:09.894Z,9.19
2022-11-18T01:02:40.647Z,9.04
2022-11-18T01:05:10.525Z,8.80
2022-11-18T01:07:38.832Z,9.29
2022-11-18T01:10:07.574Z,9.10
2022-11-18T01:12:54.649Z,9.26
2022-11-18T01:15:23.084Z,9.26
2022-11-18T01:17:51.334Z,9.17
2022-11-18T01:20:21.027Z,9.26
2022-11-18T01:22:49.324Z,8.91
2022-11-18T01:25:17.790Z,9.17
2022-11-18T01:27:46.029Z,8.87
2022-11-18T01:30:16.935Z,9.22
2022-11-18T01:32:45.453Z,9.34
2022-11-18T01:35:16.086Z,9.27
2022-11-18T01:37:45.645Z,9.17
2022-11-18T01:40:13.914Z,9.32
2022-11-18T01:42:44.339Z,9.21
2022-11-18T01:45:33.871Z,9.35
2022-11-18T01:48:07.896Z,9.10
2022-11-18T01:50:38.100Z,9.22
2022-11-18T01:53:13.368Z,9.37
2022-11-18T01:55:45.895Z,9.13
2022-11-18T01:58:19.103Z,9.55
2022-11-18T02:00:49.581Z,9.60
2022-11-18T02:03:18.551Z,9.71
2022-11-18T02:05:50.602Z,9.28
2022-11-18T02:08:21.712Z,9.38
2022-11-18T02:10:50.096Z,9.47
2022-11-18T02:13:19.424Z,9.22
2022-11-18T02:16:00.034Z,9.40
2022-11-18T02:18:36.926Z,9.28
2022-11-18T02:21:20.903Z,9.15
2022-11-18T02:24:07.727Z,8.66
2022-11-18T02:27:16.006Z,9.37
2022-11-18T02:29:53.060Z,9.38
2022-11-18T02:32:27.416Z,8.93
2022-11-18T02:35:02.359Z,8.95
2022-11-18T02:37:37.848Z,9.37
2022-11-18T02:40:11.310Z,9.05
2022-11-18T02:42:43.834Z,9.21
2022-11-18T02:45:17.816Z,9.20
2022-11-18T02:47:49.355Z,9.13
2022-11-18T02:50:22.293Z,8.79
2022-11-18T02:52:55.797Z,8.94
2022-11-18T02:55:29.886Z,8.98
2022-11-18T02:57:59.459Z,9.49
2022-11-18T03:00:29.265Z,9.18
2022-11-18T03:02:57.565Z,9.28
2022-11-18T03:05:33.696Z,9.25
2022-11-18T03:08:09.581Z,9.13
2022-11-18T03:10:48.087Z,9.07
2022-11-18T03:13:25.588Z,8.88
2022-11-18T03:16:03.899Z,8.67
2022-11-18T03:18:38.592Z,8.82
2022-11-18T03:21:12.253Z,8.52
2022-11-18T03:23:45.133Z,8.43
2022-11-18T03:26:19.880Z,8.39
2022-11-18T03:28:54.410Z,8.72
2022-11-18T03:31:28.986Z,8.73
2022-11-18T03:34:03.008Z,8.55
2022-11-18T03:36:38.358Z,8.49
2022-11-18T03:39:09.399Z,8.82
2022-11-18T03:41:43.316Z,8.89
2022-11-18T03:44:14.887Z,9.10
2022-11-18T03:46:48.744Z,8.65
2022-11-18T03:49:22.548Z,8.52
2022-11-18T03:51:57.063Z,8.41
2022-11-18T03:54:28.918Z,8.66
2022-11-18T03:57:02.771Z,8.88
2022-11-18T03:59:48.975Z,8.65
2022-11-18T04:02:21.015Z,8.57
2022-11-18T04:04:51.617Z,8.28
2022-11-18T04:07:25.914Z,8.49
2022-11-18T04:09:58.940Z,8.24
2022-11-18T04:12:32.068Z,8.26
2022-11-18T04:15:00.835Z,8.11
2022-11-18T04:17:30.715Z,8.42
2022-11-18T04:20:01.227Z,8.42
2022-11-18T04:22:29.516Z,8.25
2022-11-18T04:24:59.977Z,8.31
2022-11-18T04:27:28.360Z,8.36
2022-11-18T04:29:56.914Z,7.84
2022-11-18T04:32:25.239Z,7.93
2022-11-18T04:34:55.018Z,7.72
2022-11-18T04:37:23.510Z,8.02
2022-11-18T04:39:52.661Z,8.15
2022-11-18T04:42:21.028Z,8.35
2022-11-18T04:44:51.756Z,8.25
2022-11-18T04:47:20.029Z,8.27
2022-11-18T04:49:48.428Z,8.25
2022-11-18T04:52:18.505Z,8.28
2022-11-18T04:54:47.258Z,8.08
2022-11-18T04:57:15.553Z,8.23
2022-11-18T04:59:46.147Z,8.19
2022-11-18T05:02:14.739Z,8.19
2022-11-18T05:04:43.510Z,7.98
2022-11-18T05:07:16.234Z,8.30
2022-11-18T05:09:46.033Z,8.24
2022-11-18T05:12:33.574Z,8.31
2022-11-18T05:15:02.117Z,8.15
2022-11-18T05:17:30.519Z,8.04
2022-11-18T05:19:58.806Z,8.22
2022-11-18T05:22:27.085Z,8.31
2022-11-18T05:24:56.821Z,8.21
2022-11-18T05:27:25.325Z,8.18
2022-11-18T05:29:53.819Z,8.08
2022-11-18T05:32:22.239Z,8.03
2022-11-18T05:34:50.496Z,8.26
2022-11-18T05:37:18.916Z,8.39
2022-11-18T05:39:47.217Z,8.50
2022-11-18T05:42:34.604Z,8.19
2022-11-18T05:45:03.046Z,8.22
2022-11-18T05:47:51.453Z,8.12
2022-11-18T05:50:21.419Z,8.20
2022-11-18T05:52:50.078Z,8.39
2022-11-18T05:55:20.677Z,7.97
2022-11-18T05:57:51.339Z,8.29
2022-11-18T06:00:22.186Z,8.11
2022-11-18T06:02:53.005Z,8.13
2022-11-18T06:05:23.128Z,8.23
2022-11-18T06:07:51.552Z,8.39
2022-11-18T06:10:24.150Z,8.28
2022-11-18T06:12:58.192Z,8.07
2022-11-18T06:15:29.454Z,8.19
2022-11-18T06:18:01.889Z,8.38
2022-11-18T06:20:30.616Z,8.20
2022-11-18T06:23:00.980Z,7.94
2022-11-18T06:25:29.785Z,8.00
2022-11-18T06:28:02.686Z,7.97
2022-11-18T06:30:31.110Z,8.19
2022-11-18T06:32:59.473Z,8.05
2022-11-18T06:35:27.957Z,8.04
2022-11-18T06:37:56.352Z,7.99
2022-11-18T06:40:31.655Z,8.19
2022-11-18T06:43:25.567Z,8.42
2022-11-18T06:46:11.303Z,8.13
2022-11-18T06:48:39.696Z,8.23
2022-11-18T06:51:09.101Z,8.27
2022-11-18T06:53:38.883Z,7.89
2022-11-18T06:56:08.783Z,8.34
2022-11-18T06:58:38.770Z,7.99
2022-11-18T07:01:11.967Z,8.07
2022-11-18T07:03:40.391Z,8.25
2022-11-18T07:06:10.332Z,8.36
2022-11-18T07:08:39.850Z,8.35
2022-11-18T07:11:11.473Z,8.30
2022-11-18T07:13:44.268Z,8.30
2022-11-18T07:16:14.321Z,8.37
2022-11-18T07:18:44.431Z,8.44
2022-11-18T07:21:14.685Z,8.46
2022-11-18T07:23:43.067Z,8.07
2022-11-18T07:26:12.370Z,8.25
2022-11-18T07:28:40.884Z,8.40
2022-11-18T07:31:13.387Z,8.54
2022-11-18T07:33:42.944Z,8.37
2022-11-18T07:36:13.319Z,8.68
2022-11-18T07:38:42.493Z,8.46
2022-11-18T07:41:12.506Z,8.21
2022-11-18T07:43:41.357Z,8.33
2022-11-18T07:46:16.070Z,8.33
2022-11-18T07:48:46.523Z,8.38
2022-11-18T07:51:15.900Z,8.41
2022-11-18T07:53:45.181Z,8.38
2022-11-18T07:56:14.768Z,8.25
2022-11-18T07:58:43.940Z,8.16
2022-11-18T08:01:15.222Z,8.77
2022-11-18T08:03:44.605Z,8.54
2022-11-18T08:06:15.804Z,8.60
2022-11-18T08:08:44.897Z,8.46
2022-11-18T08:11:20.629Z,8.45
2022-11-18T08:13:50.647Z,8.65
2022-11-18T08:16:22.780Z,8.29
2022-11-18T08:18:51.520Z,8.55
2022-11-18T08:21:21.696Z,8.35
2022-11-18T08:23:54.166Z,8.35
2022-11-18T08:26:23.049Z,8.63
2022-11-18T08:28:54.377Z,8.68
2022-11-18T08:31:26.240Z,8.93
2022-11-18T08:33:58.060Z,8.81
2022-11-18T08:36:28.978Z,8.92
2022-11-18T08:38:57.705Z,8.95
2022-11-18T08:41:30.547Z,9.16
2022-11-18T08:43:58.940Z,9.15
2022-11-18T08:46:28.774Z,8.75
2022-11-18T08:48:57.160Z,8.95
2022-11-18T08:51:25.216Z,9.22
2022-11-18T08:53:53.319Z,8.98
2022-11-18T08:56:22.438Z,9.29
2022-11-18T08:58:50.890Z,9.36
2022-11-18T09:01:21.450Z,8.82
2022-11-18T09:03:51.832Z,9.01
2022-11-18T09:06:24.671Z,8.94
2022-11-18T09:08:53.738Z,9.24
2022-11-18T09:11:23.041Z,8.78
2022-11-18T09:16:41.468Z,8.95
2022-11-18T09:19:47.184Z,9.30
2022-11-18T09:21:59.071Z,8.98
2022-11-18T09:24:27.249Z,8.78
2022-11-18T09:26:55.458Z,8.92
2022-11-18T09:29:26.024Z,8.91
2022-11-18T09:31:54.824Z,9.04
2022-11-18T09:34:24.460Z,8.92
2022-11-18T09:36:55.918Z,9.10
2022-11-18T09:39:26.398Z,9.25
2022-11-18T09:42:01.685Z,8.85
2022-11-18T09:44:39.418Z,9.01
2022-11-18T09:47:14.009Z,9.30
2022-11-18T09:49:46.511Z,9.05
2022-11-18T09:52:17.666Z,9.34
2022-11-18T09:54:48.638Z,9.40
2022-11-18T09:57:17.579Z,9.44
2022-11-18T09:59:45.994Z,9.33
2022-11-18T10:02:34.681Z,9.38
2022-11-18T10:05:15.042Z,9.68
2022-11-18T10:07:49.822Z,9.69
2022-11-18T10:10:20.623Z,9.97
2022-11-18T10:12:51.411Z,9.92
2022-11-18T10:15:27.709Z,9.92
2022-11-18T10:18:02.385Z,9.90
2022-11-18T10:20:38.152Z,10.06
2022-11-18T10:23:13.893Z,9.79
2022-11-18T10:25:42.358Z,9.74
2022-11-18T10:28:21.916Z,9.77
2022-11-18T10:30:50.771Z,9.72
2022-11-18T10:33:26.557Z,9.78
2022-11-18T10:36:24.935Z,9.91
2022-11-18T10:39:06.828Z,10.08
2022-11-18T10:41:39.538Z,9.92
2022-11-18T10:44:27.473Z,9.90
2022-11-18T10:46:55.536Z,10.17
2022-11-18T10:49:25.910Z,9.79
2022-11-18T10:52:07.509Z,9.80
2022-11-18T10:54:37.154Z,9.81
2022-11-18T10:57:07.191Z,9.83
2022-11-18T10:59:37.296Z,9.70
2022-11-18T11:02:13.536Z,9.82
2022-11-18T11:04:42.225Z,9.71
2022-11-18T11:07:17.455Z,9.65
2022-11-18T11:09:59.957Z,9.87
2022-11-18T11:12:29.733Z,10.05
2022-11-18T11:15:00.545Z,10.24
2022-11-18T11:17:31.410Z,10.43
2022-11-18T11:20:06.923Z,10.95
2022-11-18T11:22:34.997Z,10.72
2022-11-18T11:25:07.317Z,10.49
2022-11-18T11:30:40.813Z,10.37
2022-11-18T11:33:27.154Z,10.63
2022-11-18T11:36:02.140Z,10.79
2022-11-18T11:38:36.425Z,10.57
2022-11-18T11:41:11.720Z,10.25
2022-11-18T11:43:48.834Z,10.53
2022-11-18T11:46:28.748Z,10.71
2022-11-18T11:49:16.909Z,10.41
2022-11-18T11:51:48.594Z,10.46
2022-11-18T11:54:32.746Z,10.58
2022-11-18T11:57:05.091Z,10.67
2022-11-18T11:59:38.202Z,11.04
2022-11-18T12:02:33.327Z,10.81
2022-11-18T12:05:04.298Z,10.78
2022-11-18T12:07:34.564Z,10.61
2022-11-18T12:10:06.302Z,10.65
2022-11-18T12:12:38.745Z,10.52
2022-11-18T12:15:19.579Z,10.51
2022-11-18T12:17:53.440Z,10.26
2022-11-18T12:20:38.098Z,10.75
2022-11-18T12:23:14.463Z,10.83
2022-11-18T12:25:45.124Z,10.55
2022-11-18T12:28:23.392Z,10.29
2022-11-18T12:30:51.432Z,10.43
2022-11-18T12:33:19.522Z,10.51
2022-11-18T12:35:48.748Z,10.52
2022-11-18T12:38:30.172Z,10.25
2022-11-18T12:40:58.227Z,10.34
2022-11-18T12:43:49.446Z,10.47
2022-11-18T12:46:35.211Z,10.28
2022-11-18T12:49:18.353Z,10.22
2022-11-18T12:51:47.897Z,10.23
2022-11-18T12:54:36.770Z,10.65
2022-11-18T12:57:05.908Z,10.59
2022-11-18T12:59:35.534Z,10.54
2022-11-18T13:02:05.412Z,10.44
2022-11-18T13:04:38.900Z,10.21
2022-11-18T13:07:34.105Z,10.65
2022-11-18T13:10:03.736Z,11.10
2022-11-18T13:12:32.485Z,10.48
2022-11-18T13:15:20.970Z,10.55
2022-11-18T13:17:55.803Z,10.58
2022-11-18T13:20:31.032Z,10.65
2022-11-18T13:23:20.328Z,11.70
2022-11-18T13:25:50.973Z,11.75
2022-11-18T13:28:29.320Z,11.85
2022-11-18T13:31:04.897Z,11.86
2022-11-18T13:33:36.155Z,11.29
2022-11-18T13:36:04.640Z,10.85
2022-11-18T13:38:34.969Z,10.78
2022-11-18T13:41:08.150Z,10.53
2022-11-18T13:43:38.579Z,11.20
2022-11-18T13:46:15.447Z,10.73
2022-11-18T13:48:50.493Z,10.65
2022-11-18T13:51:19.771Z,10.47
2022-11-18T13:53:49.991Z,10.89
2022-11-18T13:56:21.921Z,11.08
2022-11-18T14:01:55.959Z,10.39
2022-11-18T14:04:27.523Z,9.91
2022-11-18T14:07:39.632Z,9.94
2022-11-18T14:10:09.811Z,10.29
2022-11-18T14:12:37.954Z,10.14
2022-11-18T14:15:21.828Z,10.36
2022-11-18T14:17:55.083Z,10.52
2022-11-18T14:20:26.434Z,10.48
2022-11-18T14:22:55.938Z,10.11
2022-11-18T14:25:29.399Z,10.14
2022-11-18T14:27:57.907Z,10.39
2022-11-18T14:30:30.535Z,10.23
2022-11-18T14:33:10.135Z,10.06
2022-11-18T14:35:43.006Z,10.13
2022-11-18T14:38:36.612Z,9.88
2022-11-18T14:41:10.600Z,10.30
2022-11-18T14:43:38.764Z,9.95
2022-11-18T14:46:08.835Z,9.96
2022-11-18T14:48:36.842Z,9.91
2022-11-18T14:51:05.193Z,9.85
2022-11-18T14:53:33.279Z,10.09
2022-11-18T14:56:01.330Z,9.86
2022-11-18T14:58:36.787Z,9.95
2022-11-18T15:01:05.203Z,10.10
2022-11-18T15:03:33.327Z,9.96
2022-11-18T15:06:13.146Z,10.18
2022-11-18T15:08:43.044Z,9.88
2022-11-18T15:11:11.382Z,9.94
2022-11-18T15:13:40.815Z,9.68
2022-11-18T15:16:15.453Z,9.64
2022-11-18T15:18:45.265Z,9.67
2022-11-18T15:21:13.337Z,9.48
2022-11-18T15:23:41.920Z,9.49
2022-11-18T15:26:17.613Z,9.61
2022-11-18T15:28:47.160Z,9.43
2022-11-18T15:31:15.263Z,9.33
2022-11-18T15:33:43.510Z,9.41
2022-11-18T15:36:14.886Z,9.23
2022-11-18T15:38:43.277Z,9.10
2022-11-18T15:41:15.802Z,9.19
2022-11-18T15:43:43.882Z,8.72
2022-11-18T15:46:13.441Z,9.12
2022-11-18T15:48:41.711Z,8.55
2022-11-18T15:51:12.187Z,8.55
2022-11-18T15:53:40.773Z,8.54
2022-11-18T15:56:15.246Z,8.90
2022-11-18T15:58:43.313Z,8.91
2022-11-18T16:01:11.392Z,9.02
2022-11-18T16:03:40.878Z,8.95
2022-11-18T16:06:09.156Z,8.85
2022-11-18T16:08:37.254Z,8.89
2022-11-18T16:11:23.026Z,8.80
2022-11-18T16:13:51.053Z,8.82
2022-11-18T16:16:20.002Z,8.64
2022-11-18T16:18:49.495Z,8.81
2022-11-18T16:21:17.526Z,8.84
2022-11-18T16:23:45.737Z,8.91
2022-11-18T16:26:17.076Z,8.83
2022-11-18T16:28:45.470Z,8.88
2022-11-18T16:31:31.432Z,8.96
2022-11-18T16:34:00.839Z,8.93
2022-11-18T16:36:29.341Z,8.83
2022-11-18T16:38:58.105Z,8.95
2022-11-18T16:41:35.065Z,9.10
2022-11-18T16:44:04.367Z,8.87
2022-11-18T16:46:33.260Z,9.07
2022-11-18T16:49:03.078Z,9.21
2022-11-18T16:51:31.776Z,8.55
2022-11-18T16:54:00.665Z,9.04
2022-11-18T16:56:29.591Z,9.03
2022-11-18T16:58:58.425Z,8.57
2022-11-18T17:01:29.629Z,9.10
2022-11-18T17:03:58.395Z,8.75
2022-11-18T17:06:31.395Z,8.52
2022-11-18T17:09:00.093Z,8.49
2022-11-18T17:11:28.271Z,8.43
2022-11-18T17:13:58.195Z,8.28
2022-11-18T17:16:28.601Z,8.14
2022-11-18T17:18:59.791Z,8.30
2022-11-18T17:21:28.302Z,8.21
2022-11-18T17:23:58.015Z,8.30
2022-11-18T17:26:27.331Z,8.42
2022-11-18T17:28:58.080Z,8.52
2022-11-18T17:31:26.874Z,8.32
2022-11-18T17:33:55.471Z,8.13
2022-11-18T17:36:24.476Z,8.56
2022-11-18T17:38:53.328Z,8.07
2022-11-18T17:41:41.203Z,8.27
2022-11-18T17:44:09.989Z,8.11
2022-11-18T17:46:38.839Z,7.96
2022-11-18T17:49:07.907Z,8.02
2022-11-18T17:51:35.980Z,7.99
2022-11-18T17:54:03.970Z,7.94
2022-11-18T17:56:33.380Z,7.96
2022-11-18T17:59:01.537Z,8.21
2022-11-18T18:01:29.654Z,7.98
2022-11-18T18:04:00.710Z,7.80
2022-11-18T18:06:28.741Z,8.02
2022-11-18T18:08:59.505Z,8.06
2022-11-18T18:11:29.988Z,7.94
2022-11-18T18:14:13.909Z,8.21
2022-11-18T18:16:43.376Z,8.18
2022-11-18T18:19:12.597Z,8.48
2022-11-18T18:21:40.706Z,8.33
2022-11-18T18:24:09.294Z,8.20
2022-11-18T18:26:37.339Z,8.17
2022-11-18T18:29:06.862Z,8.20
2022-11-18T18:31:36.066Z,8.48
2022-11-18T18:34:04.518Z,8.55
2022-11-18T18:36:32.882Z,8.77
2022-11-18T18:39:02.149Z,8.28
2022-11-18T18:41:30.219Z,8.34
2022-11-18T18:44:00.587Z,8.13
2022-11-18T18:46:30.138Z,8.39
2022-11-18T18:49:02.948Z,8.31
2022-11-18T18:51:32.122Z,8.48
2022-11-18T18:54:00.317Z,8.23
2022-11-18T18:56:28.736Z,8.26
2022-11-18T18:58:57.457Z,8.23
2022-11-18T19:01:26.146Z,8.08
2022-11-18T19:03:56.629Z,8.47
2022-11-18T19:06:53.184Z,8.40
2022-11-18T19:09:14.693Z,8.34
2022-11-18T19:12:00.361Z,8.44
2022-11-18T19:14:28.999Z,8.56
2022-11-18T19:16:59.856Z,8.20
2022-11-18T19:19:49.093Z,8.37
2022-11-18T19:22:17.192Z,8.52
2022-11-18T19:24:50.250Z,8.32
2022-11-18T19:27:19.006Z,8.26
2022-11-18T19:29:47.010Z,8.22
2022-11-18T19:32:15.473Z,8.39
2022-11-18T19:34:44.867Z,8.59
2022-11-18T19:37:12.977Z,8.34
2022-11-18T19:39:41.001Z,8.66
2022-11-18T19:42:10.624Z,8.63
2022-11-18T19:44:38.893Z,8.52
2022-11-18T19:47:06.894Z,8.69
2022-11-18T19:49:34.908Z,8.62
2022-11-18T19:52:04.290Z,8.54
2022-11-18T19:54:32.265Z,8.52
2022-11-18T19:57:00.944Z,8.27
2022-11-18T19:59:29.001Z,8.38
2022-11-18T20:01:59.410Z,8.79
2022-11-18T20:04:27.621Z,8.81
2022-11-18T20:06:56.729Z,8.69
2022-11-18T20:09:26.340Z,8.75
2022-11-18T20:11:54.349Z,8.75
2022-11-18T20:14:22.577Z,8.50
2022-11-18T20:16:51.697Z,8.43
2022-11-18T20:19:19.998Z,8.69
2022-11-18T20:21:50.306Z,8.63
2022-11-18T20:24:20.428Z,8.36
2022-11-18T20:26:52.013Z,8.56
2022-11-18T20:29:21.089Z,8.67
2022-11-18T20:31:53.568Z,8.68
2022-11-18T20:34:22.059Z,8.56
2022-11-18T20:36:51.888Z,8.45
2022-11-18T20:39:20.453Z,8.52
2022-11-18T20:42:12.486Z,8.26
2022-11-18T20:44:44.128Z,8.47
2022-11-18T20:47:12.198Z,8.68
2022-11-18T20:49:40.226Z,8.37
2022-11-18T20:52:08.492Z,8.13
2022-11-18T20:54:36.450Z,7.90
2022-11-18T20:57:04.627Z,7.75
2022-11-18T20:59:32.601Z,8.09
2022-11-18T21:02:01.968Z,8.01
2022-11-18T21:04:29.997Z,7.70
2022-11-18T21:07:01.556Z,7.47
2022-11-18T21:09:31.845Z,7.56
2022-11-18T21:12:00.493Z,7.74
2022-11-18T21:14:28.328Z,8.23
2022-11-18T21:17:00.424Z,7.89
2022-11-18T21:19:30.261Z,7.81
2022-11-18T21:21:57.385Z,7.60
2022-11-18T21:24:28.080Z,7.93
2022-11-18T21:26:57.278Z,7.56
2022-11-18T21:29:26.450Z,7.90
2022-11-18T21:31:54.722Z,7.75
2022-11-18T21:34:22.892Z,7.69
2022-11-18T21:36:54.946Z,7.69
2022-11-18T21:39:23.959Z,7.57
2022-11-18T21:41:55.843Z,7.95
2022-11-18T21:44:25.511Z,7.86
2022-11-18T21:46:53.599Z,7.80
2022-11-18T21:49:22.269Z,7.54
2022-11-18T21:51:55.303Z,7.73
2022-11-18T21:54:23.523Z,7.49
2022-11-18T21:56:54.014Z,7.60
2022-11-18T22:02:44.401Z,7.64
2022-11-18T22:05:13.126Z,7.79
2022-11-18T22:07:41.317Z,7.71
2022-11-18T22:10:11.803Z,7.56
2022-11-18T22:12:39.997Z,7.75
2022-11-18T22:15:08.823Z,7.80
2022-11-18T22:17:41.710Z,7.70
2022-11-18T22:20:13.541Z,7.75
2022-11-18T22:22:41.737Z,7.54
2022-11-18T22:25:10.222Z,7.67
2022-11-18T22:27:38.249Z,7.47
2022-11-18T22:30:07.040Z,7.68
2022-11-18T22:32:35.141Z,7.79
2022-11-18T22:35:03.406Z,7.48
2022-11-18T22:37:32.847Z,7.62
2022-11-18T22:40:00.890Z,7.43
2022-11-18T22:42:46.713Z,7.29
2022-11-18T22:45:14.956Z,7.17
2022-11-18T22:47:43.112Z,7.42
2022-11-18T22:50:11.462Z,7.59
2022-11-18T22:52:41.493Z,7.69
2022-11-18T22:55:09.921Z,7.69
2022-11-18T22:57:40.008Z,7.37
2022-11-18T23:00:08.874Z,7.25
2022-11-18T23:02:36.960Z,7.35
2022-11-18T23:05:05.329Z,7.12
2022-11-18T23:07:33.375Z,7.33
2022-11-18T23:10:03.009Z,7.30
2022-11-18T23:12:48.367Z,7.51
2022-11-18T23:15:16.405Z,7.33
2022-11-18T23:17:44.533Z,7.42
2022-11-18T23:20:12.858Z,7.48
2022-11-18T23:22:41.064Z,7.64
2022-11-18T23:25:10.826Z,7.28
2022-11-18T23:27:38.966Z,7.34
2022-11-18T23:30:07.630Z,7.63
2022-11-18T23:32:35.736Z,7.53
2022-11-18T23:35:03.846Z,7.45
2022-11-18T23:37:31.919Z,7.42
2022-11-18T23:40:00.127Z,7.53
2022-11-18T23:42:29.576Z,7.72
2022-11-18T23:45:02.286Z,7.50
2022-11-18T23:47:33.027Z,7.58
2022-11-18T23:50:01.060Z,7.38
2022-11-18T23:52:29.171Z,7.62
2022-11-18T23:54:57.576Z,7.66
2022-11-18T23:57:25.541Z,7.49
2022-11-18T23:59:54.979Z,7.38
